Карточка аэропорта UHPP

Внимание!
Информация на этой странице в стадии наполнения.
Если вы не увидели какой-то информации, или заметили неточность - пожалуйста сообщите нам!
Спасибо!
Команда RU-STAFF
Название аэропортаЕлизово
Название аэропорта (англ.)Yelizovo
Превышение131 ft. (39.9 m.)
Координаты53°10.2', 158°27.6'
Высота перехода2400m
Эшелон переходаQFE > 759 mmHg - FL090; 729 mmHg < QFE < 759 mmHg - FL100; QFE < 729 mmHg - FL110
Коды ответчика6630-6657
Зона ОрВДМагадан РПИ (UHMM)
Данные METARUHPP 140230Z 20004MPS 8000 -SHRA BKN006 OVC021CB 07/06 Q1008 R16R/290160 NOSIG RMK MT OBSC QFE753/1004
Проноз погоды (TAF)UHPP 140136Z 1403/1509 19003G12MPS 6000 -SHRA BKN005 OVC020CB TEMPO 1403/1410 12005G12MPS 1000 -SHRA BR VV002 TEMPO 1410/1421 0700 -SHRA FG VV002
NOTAMshow/hide NOTAM
AWOS   TABLE

Информация о ВПП

ВПП Длина ВПП (м.) Покрытие Курс ВПП Частота ILS
16R2500Бетон164109.9
34L2500Бетон344108.7

Диспетчерские позиции

Позывной Наименование органа УВД Частота
UHPP_TWRПетропавловск - Старт118.100
UHPP_GNDПетропавловск - Руление127.000
UHPP_R_APPПетропавловск - Круг119.400
UHPP_ATISПетропавловск - АТИС126.800



Спутниковое изображение